sensor_id;sensor_type;location;lat;lon;timestamp;temperature;humidity
20534;DHT22;12929;56.822;26.056;2022-09-17T00:01:27;9.80;99.90
20534;DHT22;12929;56.822;26.056;2022-09-17T00:03:57;9.80;99.90
20534;DHT22;12929;56.822;26.056;2022-09-17T00:06:28;9.70;99.90
20534;DHT22;12929;56.822;26.056;2022-09-17T00:08:56;9.70;99.90
20534;DHT22;12929;56.822;26.056;2022-09-17T00:11:27;9.80;99.90
20534;DHT22;12929;56.822;26.056;2022-09-17T00:13:56;9.80;99.90
20534;DHT22;12929;56.822;26.056;2022-09-17T00:16:32;9.70;99.90
20534;DHT22;12929;56.822;26.056;2022-09-17T00:19:00;9.80;99.90
20534;DHT22;12929;56.822;26.056;2022-09-17T00:21:29;9.70;99.90
20534;DHT22;12929;56.822;26.056;2022-09-17T00:23:59;9.80;99.90
20534;DHT22;12929;56.822;26.056;2022-09-17T00:26:28;9.80;99.90
20534;DHT22;12929;56.822;26.056;2022-09-17T00:28:56;9.80;99.90
20534;DHT22;12929;56.822;26.056;2022-09-17T00:31:25;9.80;99.90
20534;DHT22;12929;56.822;26.056;2022-09-17T00:33:53;9.80;99.90
20534;DHT22;12929;56.822;26.056;2022-09-17T00:36:21;9.90;99.90
20534;DHT22;12929;56.822;26.056;2022-09-17T00:38:50;9.80;99.90
20534;DHT22;12929;56.822;26.056;2022-09-17T00:41:19;9.80;99.90
20534;DHT22;12929;56.822;26.056;2022-09-17T00:43:51;9.80;99.90
20534;DHT22;12929;56.822;26.056;2022-09-17T00:46:38;9.70;99.90
20534;DHT22;12929;56.822;26.056;2022-09-17T00:49:15;9.70;99.90
20534;DHT22;12929;56.822;26.056;2022-09-17T00:52:07;9.70;99.90
20534;DHT22;12929;56.822;26.056;2022-09-17T00:54:38;9.70;99.90
20534;DHT22;12929;56.822;26.056;2022-09-17T00:57:06;9.80;99.90
20534;DHT22;12929;56.822;26.056;2022-09-17T00:59:34;9.80;99.90
20534;DHT22;12929;56.822;26.056;2022-09-17T01:02:03;9.90;99.90
20534;DHT22;12929;56.822;26.056;2022-09-17T01:04:30;9.90;99.90
20534;DHT22;12929;56.822;26.056;2022-09-17T01:07:08;9.80;99.90
20534;DHT22;12929;56.822;26.056;2022-09-17T01:10:02;9.70;99.90
20534;DHT22;12929;56.822;26.056;2022-09-17T01:35:19;9.70;99.90
20534;DHT22;12929;56.822;26.056;2022-09-17T01:37:57;9.70;99.90
20534;DHT22;12929;56.822;26.056;2022-09-17T01:43:30;9.70;99.90
20534;DHT22;12929;56.822;26.056;2022-09-17T01:48:43;9.60;99.90
20534;DHT22;12929;56.822;26.056;2022-09-17T01:51:17;9.70;99.90
20534;DHT22;12929;56.822;26.056;2022-09-17T01:59:59;9.50;99.90
20534;DHT22;12929;56.822;26.056;2022-09-17T02:02:43;9.60;99.90
20534;DHT22;12929;56.822;26.056;2022-09-17T02:05:23;9.60;99.90
20534;DHT22;12929;56.822;26.056;2022-09-17T02:10:47;9.60;99.90
20534;DHT22;12929;56.822;26.056;2022-09-17T02:16:23;9.70;99.90
20534;DHT22;12929;56.822;26.056;2022-09-17T02:19:21;9.70;99.90
20534;DHT22;12929;56.822;26.056;2022-09-17T02:22:01;9.60;99.90
20534;DHT22;12929;56.822;26.056;2022-09-17T02:29:40;9.50;99.90
20534;DHT22;12929;56.822;26.056;2022-09-17T02:32:09;9.60;99.90
20534;DHT22;12929;56.822;26.056;2022-09-17T02:34:37;9.60;99.90
20534;DHT22;12929;56.822;26.056;2022-09-17T02:37:06;9.70;99.90
20534;DHT22;12929;56.822;26.056;2022-09-17T02:39:33;9.70;99.90
20534;DHT22;12929;56.822;26.056;2022-09-17T02:45:17;9.70;99.90
20534;DHT22;12929;56.822;26.056;2022-09-17T02:51:04;9.60;99.90
20534;DHT22;12929;56.822;26.056;2022-09-17T02:53:38;9.60;99.90
20534;DHT22;12929;56.822;26.056;2022-09-17T03:01:42;9.60;99.90
20534;DHT22;12929;56.822;26.056;2022-09-17T03:04:14;9.60;99.90
20534;DHT22;12929;56.822;26.056;2022-09-17T03:06:46;9.60;99.90
20534;DHT22;12929;56.822;26.056;2022-09-17T03:09:14;9.70;99.90
20534;DHT22;12929;56.822;26.056;2022-09-17T03:11:42;9.70;99.90
20534;DHT22;12929;56.822;26.056;2022-09-17T03:14:09;9.70;99.90
20534;DHT22;12929;56.822;26.056;2022-09-17T03:16:37;9.60;99.90
20534;DHT22;12929;56.822;26.056;2022-09-17T03:19:04;9.60;99.90
20534;DHT22;12929;56.822;26.056;2022-09-17T03:21:32;9.60;99.90
20534;DHT22;12929;56.822;26.056;2022-09-17T03:24:00;9.70;99.90
20534;DHT22;12929;56.822;26.056;2022-09-17T03:26:27;9.60;99.90
20534;DHT22;12929;56.822;26.056;2022-09-17T03:28:55;9.60;99.90
20534;DHT22;12929;56.822;26.056;2022-09-17T03:31:23;9.60;99.90
20534;DHT22;12929;56.822;26.056;2022-09-17T03:33:51;9.60;99.90
20534;DHT22;12929;56.822;26.056;2022-09-17T03:36:18;9.60;99.90
20534;DHT22;12929;56.822;26.056;2022-09-17T03:38:46;9.60;99.90
20534;DHT22;12929;56.822;26.056;2022-09-17T03:41:14;9.70;99.90
20534;DHT22;12929;56.822;26.056;2022-09-17T03:43:41;9.70;99.90
20534;DHT22;12929;56.822;26.056;2022-09-17T03:46:09;9.60;99.90
20534;DHT22;12929;56.822;26.056;2022-09-17T03:48:37;9.70;99.90
20534;DHT22;12929;56.822;26.056;2022-09-17T03:51:06;9.70;99.90
20534;DHT22;12929;56.822;26.056;2022-09-17T03:53:33;9.60;99.90
20534;DHT22;12929;56.822;26.056;2022-09-17T03:56:03;9.70;99.90
20534;DHT22;12929;56.822;26.056;2022-09-17T03:58:31;9.70;99.90
20534;DHT22;12929;56.822;26.056;2022-09-17T04:00:59;9.70;99.90
20534;DHT22;12929;56.822;26.056;2022-09-17T04:03:27;9.60;99.90
20534;DHT22;12929;56.822;26.056;2022-09-17T04:05:55;9.70;99.90
20534;DHT22;12929;56.822;26.056;2022-09-17T04:08:23;9.70;99.90
20534;DHT22;12929;56.822;26.056;2022-09-17T04:10:50;9.70;99.90
20534;DHT22;12929;56.822;26.056;2022-09-17T04:13:18;9.70;99.90
20534;DHT22;12929;56.822;26.056;2022-09-17T04:15:46;9.70;99.90
20534;DHT22;12929;56.822;26.056;2022-09-17T04:18:14;9.70;99.90
20534;DHT22;12929;56.822;26.056;2022-09-17T04:20:41;9.70;99.90
20534;DHT22;12929;56.822;26.056;2022-09-17T04:23:11;9.70;99.90
20534;DHT22;12929;56.822;26.056;2022-09-17T04:25:39;9.70;99.90
20534;DHT22;12929;56.822;26.056;2022-09-17T04:28:07;9.60;99.90
20534;DHT22;12929;56.822;26.056;2022-09-17T04:30:35;9.60;99.90
20534;DHT22;12929;56.822;26.056;2022-09-17T04:33:03;9.60;99.90
20534;DHT22;12929;56.822;26.056;2022-09-17T04:35:31;9.70;99.90
20534;DHT22;12929;56.822;26.056;2022-09-17T04:37:59;9.70;99.90
20534;DHT22;12929;56.822;26.056;2022-09-17T04:40:27;9.70;99.90
20534;DHT22;12929;56.822;26.056;2022-09-17T04:42:56;9.70;99.90
20534;DHT22;12929;56.822;26.056;2022-09-17T04:45:25;9.70;99.90
20534;DHT22;12929;56.822;26.056;2022-09-17T04:47:53;9.60;99.90
20534;DHT22;12929;56.822;26.056;2022-09-17T04:50:21;9.70;99.90
20534;DHT22;12929;56.822;26.056;2022-09-17T04:52:48;9.70;99.90
20534;DHT22;12929;56.822;26.056;2022-09-17T04:55:16;9.70;99.90
20534;DHT22;12929;56.822;26.056;2022-09-17T04:57:48;9.70;99.90
20534;DHT22;12929;56.822;26.056;2022-09-17T05:00:17;9.70;99.90
20534;DHT22;12929;56.822;26.056;2022-09-17T05:02:47;9.70;99.90
20534;DHT22;12929;56.822;26.056;2022-09-17T05:05:15;9.70;99.90
20534;DHT22;12929;56.822;26.056;2022-09-17T05:07:44;9.70;99.90
20534;DHT22;12929;56.822;26.056;2022-09-17T05:10:13;9.70;99.90
20534;DHT22;12929;56.822;26.056;2022-09-17T05:12:46;9.70;99.90
20534;DHT22;12929;56.822;26.056;2022-09-17T05:15:14;9.70;99.90
20534;DHT22;12929;56.822;26.056;2022-09-17T05:17:42;9.70;99.90
20534;DHT22;12929;56.822;26.056;2022-09-17T05:20:10;9.70;99.90
20534;DHT22;12929;56.822;26.056;2022-09-17T05:22:48;9.70;99.90
20534;DHT22;12929;56.822;26.056;2022-09-17T05:25:19;9.80;99.90
20534;DHT22;12929;56.822;26.056;2022-09-17T05:27:51;9.70;99.90
20534;DHT22;12929;56.822;26.056;2022-09-17T05:30:19;9.70;99.90
20534;DHT22;12929;56.822;26.056;2022-09-17T05:32:47;9.70;99.90
20534;DHT22;12929;56.822;26.056;2022-09-17T05:35:15;9.70;99.90
20534;DHT22;12929;56.822;26.056;2022-09-17T05:37:42;9.70;99.90
20534;DHT22;12929;56.822;26.056;2022-09-17T05:40:10;9.70;99.90
20534;DHT22;12929;56.822;26.056;2022-09-17T05:42:38;9.70;99.90
20534;DHT22;12929;56.822;26.056;2022-09-17T05:45:06;9.70;99.90
20534;DHT22;12929;56.822;26.056;2022-09-17T05:47:34;9.80;99.90
20534;DHT22;12929;56.822;26.056;2022-09-17T05:50:04;9.70;99.90
20534;DHT22;12929;56.822;26.056;2022-09-17T05:52:32;9.80;99.90
20534;DHT22;12929;56.822;26.056;2022-09-17T05:55:00;9.70;99.90
20534;DHT22;12929;56.822;26.056;2022-09-17T05:57:29;9.70;99.90
20534;DHT22;12929;56.822;26.056;2022-09-17T05:59:56;9.80;99.90
20534;DHT22;12929;56.822;26.056;2022-09-17T06:02:24;9.80;99.90
20534;DHT22;12929;56.822;26.056;2022-09-17T06:04:52;9.70;99.90
20534;DHT22;12929;56.822;26.056;2022-09-17T06:07:20;9.80;99.90
20534;DHT22;12929;56.822;26.056;2022-09-17T06:09:47;9.80;99.90
20534;DHT22;12929;56.822;26.056;2022-09-17T06:12:15;9.80;99.90
20534;DHT22;12929;56.822;26.056;2022-09-17T06:14:42;9.80;99.90
20534;DHT22;12929;56.822;26.056;2022-09-17T06:17:10;9.90;99.90
20534;DHT22;12929;56.822;26.056;2022-09-17T06:19:37;9.80;99.90
20534;DHT22;12929;56.822;26.056;2022-09-17T06:22:05;9.80;99.90
20534;DHT22;12929;56.822;26.056;2022-09-17T06:24:32;9.80;99.90
20534;DHT22;12929;56.822;26.056;2022-09-17T06:27:00;9.90;99.90
20534;DHT22;12929;56.822;26.056;2022-09-17T06:29:28;9.90;99.90
20534;DHT22;12929;56.822;26.056;2022-09-17T06:31:57;9.90;99.90
20534;DHT22;12929;56.822;26.056;2022-09-17T06:34:25;9.90;99.90
20534;DHT22;12929;56.822;26.056;2022-09-17T06:36:53;9.90;99.90
20534;DHT22;12929;56.822;26.056;2022-09-17T06:39:21;9.90;99.90
20534;DHT22;12929;56.822;26.056;2022-09-17T06:41:51;9.90;99.90
20534;DHT22;12929;56.822;26.056;2022-09-17T06:44:20;9.90;99.90
20534;DHT22;12929;56.822;26.056;2022-09-17T06:46:51;9.90;99.90
20534;DHT22;12929;56.822;26.056;2022-09-17T06:49:19;9.90;99.90
20534;DHT22;12929;56.822;26.056;2022-09-17T06:51:46;9.90;99.90
20534;DHT22;12929;56.822;26.056;2022-09-17T06:54:14;9.90;99.90
20534;DHT22;12929;56.822;26.056;2022-09-17T06:56:41;9.90;99.90
20534;DHT22;12929;56.822;26.056;2022-09-17T06:59:09;9.90;99.90
20534;DHT22;12929;56.822;26.056;2022-09-17T07:01:36;9.90;99.90
20534;DHT22;12929;56.822;26.056;2022-09-17T07:04:04;9.90;99.90
20534;DHT22;12929;56.822;26.056;2022-09-17T07:06:32;9.90;99.90
20534;DHT22;12929;56.822;26.056;2022-09-17T07:09:00;9.90;99.90
20534;DHT22;12929;56.822;26.056;2022-09-17T07:11:29;10.00;99.90
20534;DHT22;12929;56.822;26.056;2022-09-17T07:13:58;10.00;99.90
20534;DHT22;12929;56.822;26.056;2022-09-17T07:16:25;10.00;99.90
20534;DHT22;12929;56.822;26.056;2022-09-17T07:18:53;10.00;99.90
20534;DHT22;12929;56.822;26.056;2022-09-17T07:21:20;10.00;99.90
20534;DHT22;12929;56.822;26.056;2022-09-17T07:23:50;10.00;99.90
20534;DHT22;12929;56.822;26.056;2022-09-17T07:26:18;10.00;99.90
20534;DHT22;12929;56.822;26.056;2022-09-17T07:28:46;10.00;99.90
20534;DHT22;12929;56.822;26.056;2022-09-17T07:31:16;10.00;99.90
20534;DHT22;12929;56.822;26.056;2022-09-17T07:33:44;10.00;99.90
20534;DHT22;12929;56.822;26.056;2022-09-17T07:36:13;10.10;99.90
20534;DHT22;12929;56.822;26.056;2022-09-17T07:38:41;10.10;99.90
20534;DHT22;12929;56.822;26.056;2022-09-17T07:41:11;10.00;99.90
20534;DHT22;12929;56.822;26.056;2022-09-17T07:43:40;10.10;99.90
20534;DHT22;12929;56.822;26.056;2022-09-17T07:46:16;10.10;99.90
20534;DHT22;12929;56.822;26.056;2022-09-17T07:48:45;10.10;99.90
20534;DHT22;12929;56.822;26.056;2022-09-17T07:51:18;10.10;99.90
20534;DHT22;12929;56.822;26.056;2022-09-17T07:53:46;10.10;99.90
20534;DHT22;12929;56.822;26.056;2022-09-17T07:56:16;10.10;99.90
20534;DHT22;12929;56.822;26.056;2022-09-17T07:58:44;10.20;99.90
20534;DHT22;12929;56.822;26.056;2022-09-17T08:01:13;10.20;99.90
20534;DHT22;12929;56.822;26.056;2022-09-17T08:03:50;10.10;99.90
20534;DHT22;12929;56.822;26.056;2022-09-17T08:06:21;10.10;99.90
20534;DHT22;12929;56.822;26.056;2022-09-17T08:08:49;10.10;99.90
20534;DHT22;12929;56.822;26.056;2022-09-17T08:11:19;10.20;99.90
20534;DHT22;12929;56.822;26.056;2022-09-17T08:14:10;10.20;99.90
20534;DHT22;12929;56.822;26.056;2022-09-17T08:16:39;10.20;99.90
20534;DHT22;12929;56.822;26.056;2022-09-17T08:19:06;10.30;99.90
20534;DHT22;12929;56.822;26.056;2022-09-17T08:21:37;10.30;99.90
20534;DHT22;12929;56.822;26.056;2022-09-17T08:24:05;10.30;99.90
20534;DHT22;12929;56.822;26.056;2022-09-17T08:26:32;10.20;99.90
20534;DHT22;12929;56.822;26.056;2022-09-17T08:29:00;10.30;99.90
20534;DHT22;12929;56.822;26.056;2022-09-17T08:31:27;10.30;99.90
20534;DHT22;12929;56.822;26.056;2022-09-17T08:33:56;10.20;99.90
20534;DHT22;12929;56.822;26.056;2022-09-17T08:36:24;10.30;99.90
20534;DHT22;12929;56.822;26.056;2022-09-17T08:38:54;10.30;99.90
20534;DHT22;12929;56.822;26.056;2022-09-17T08:41:39;10.30;99.90
20534;DHT22;12929;56.822;26.056;2022-09-17T08:47:41;10.30;99.90
20534;DHT22;12929;56.822;26.056;2022-09-17T08:50:15;10.40;99.90
20534;DHT22;12929;56.822;26.056;2022-09-17T08:55:43;10.40;99.90
20534;DHT22;12929;56.822;26.056;2022-09-17T09:01:33;10.40;99.90
20534;DHT22;12929;56.822;26.056;2022-09-17T09:07:22;10.40;99.90
20534;DHT22;12929;56.822;26.056;2022-09-17T09:10:11;10.40;99.90
20534;DHT22;12929;56.822;26.056;2022-09-17T09:12:41;10.50;99.90
20534;DHT22;12929;56.822;26.056;2022-09-17T09:15:39;10.50;99.90
20534;DHT22;12929;56.822;26.056;2022-09-17T09:18:18;10.50;99.90
20534;DHT22;12929;56.822;26.056;2022-09-17T09:21:24;10.50;99.90
20534;DHT22;12929;56.822;26.056;2022-09-17T09:24:04;10.50;99.90
20534;DHT22;12929;56.822;26.056;2022-09-17T09:26:48;10.50;99.90
20534;DHT22;12929;56.822;26.056;2022-09-17T09:29:43;10.50;99.90
20534;DHT22;12929;56.822;26.056;2022-09-17T09:32:50;10.60;99.90
20534;DHT22;12929;56.822;26.056;2022-09-17T09:35:23;10.60;99.90
20534;DHT22;12929;56.822;26.056;2022-09-17T09:41:14;10.70;99.90
20534;DHT22;12929;56.822;26.056;2022-09-17T09:49:52;10.70;99.90
20534;DHT22;12929;56.822;26.056;2022-09-17T09:55:32;10.70;99.90
20534;DHT22;12929;56.822;26.056;2022-09-17T09:58:21;10.70;99.90
20534;DHT22;12929;56.822;26.056;2022-09-17T10:00:51;10.80;99.90
20534;DHT22;12929;56.822;26.056;2022-09-17T10:03:26;10.80;99.90
20534;DHT22;12929;56.822;26.056;2022-09-17T10:06:06;10.80;99.90
20534;DHT22;12929;56.822;26.056;2022-09-17T10:08:37;10.80;99.90
20534;DHT22;12929;56.822;26.056;2022-09-17T10:11:08;10.80;99.90
20534;DHT22;12929;56.822;26.056;2022-09-17T10:13:42;10.90;99.90
20534;DHT22;12929;56.822;26.056;2022-09-17T10:16:22;10.90;99.90
20534;DHT22;12929;56.822;26.056;2022-09-17T10:21:36;11.00;99.90
20534;DHT22;12929;56.822;26.056;2022-09-17T10:26:59;11.10;99.90
20534;DHT22;12929;56.822;26.056;2022-09-17T10:29:27;11.10;99.90
20534;DHT22;12929;56.822;26.056;2022-09-17T10:31:56;11.20;99.90
20534;DHT22;12929;56.822;26.056;2022-09-17T10:34:26;11.20;99.90
20534;DHT22;12929;56.822;26.056;2022-09-17T10:36:55;11.20;99.90
20534;DHT22;12929;56.822;26.056;2022-09-17T10:39:30;11.30;99.90
20534;DHT22;12929;56.822;26.056;2022-09-17T10:42:12;11.30;99.90
20534;DHT22;12929;56.822;26.056;2022-09-17T10:44:57;11.40;99.90
20534;DHT22;12929;56.822;26.056;2022-09-17T10:47:35;11.50;99.90
20534;DHT22;12929;56.822;26.056;2022-09-17T10:52:44;11.80;99.90
20534;DHT22;12929;56.822;26.056;2022-09-17T10:55:30;11.80;99.90
20534;DHT22;12929;56.822;26.056;2022-09-17T10:58:21;11.70;99.90
20534;DHT22;12929;56.822;26.056;2022-09-17T11:01:13;11.70;99.90
20534;DHT22;12929;56.822;26.056;2022-09-17T11:04:01;11.60;99.90
20534;DHT22;12929;56.822;26.056;2022-09-17T11:07:15;11.70;99.90
20534;DHT22;12929;56.822;26.056;2022-09-17T11:10:10;11.60;99.90
20534;DHT22;12929;56.822;26.056;2022-09-17T11:20:52;11.60;99.90
20534;DHT22;12929;56.822;26.056;2022-09-17T11:23:31;11.60;99.90
20534;DHT22;12929;56.822;26.056;2022-09-17T11:26:24;11.70;99.90
20534;DHT22;12929;56.822;26.056;2022-09-17T11:31:51;11.90;99.90
20534;DHT22;12929;56.822;26.056;2022-09-17T11:34:40;11.90;99.90
20534;DHT22;12929;56.822;26.056;2022-09-17T11:39:56;11.80;99.90
20534;DHT22;12929;56.822;26.056;2022-09-17T11:42:31;11.80;99.90
20534;DHT22;12929;56.822;26.056;2022-09-17T11:45:26;11.70;99.90
20534;DHT22;12929;56.822;26.056;2022-09-17T11:48:13;11.70;99.90
20534;DHT22;12929;56.822;26.056;2022-09-17T11:50:51;11.70;99.90
20534;DHT22;12929;56.822;26.056;2022-09-17T11:53:36;11.90;99.90
20534;DHT22;12929;56.822;26.056;2022-09-17T11:56:22;12.10;99.90
20534;DHT22;12929;56.822;26.056;2022-09-17T11:59:15;12.20;99.90
20534;DHT22;12929;56.822;26.056;2022-09-17T12:02:21;12.30;99.90
20534;DHT22;12929;56.822;26.056;2022-09-17T12:13:01;13.00;99.90
20534;DHT22;12929;56.822;26.056;2022-09-17T12:15:34;13.10;99.90
20534;DHT22;12929;56.822;26.056;2022-09-17T12:18:43;13.30;99.90
20534;DHT22;12929;56.822;26.056;2022-09-17T12:21:15;13.30;99.90
20534;DHT22;12929;56.822;26.056;2022-09-17T12:23:50;13.60;99.90
20534;DHT22;12929;56.822;26.056;2022-09-17T12:26:49;13.60;99.90
20534;DHT22;12929;56.822;26.056;2022-09-17T13:01:46;13.70;99.90
20534;DHT22;12929;56.822;26.056;2022-09-17T13:04:43;13.50;99.90
20534;DHT22;12929;56.822;26.056;2022-09-17T13:10:25;13.30;99.90
20534;DHT22;12929;56.822;26.056;2022-09-17T13:16:22;13.20;99.90
20534;DHT22;12929;56.822;26.056;2022-09-17T13:21:54;13.20;99.90
20534;DHT22;12929;56.822;26.056;2022-09-17T13:24:28;13.20;99.90
20534;DHT22;12929;56.822;26.056;2022-09-17T13:26:59;13.20;99.90
20534;DHT22;12929;56.822;26.056;2022-09-17T13:37:56;13.00;99.90
20534;DHT22;12929;56.822;26.056;2022-09-17T13:40:29;12.80;99.90
20534;DHT22;12929;56.822;26.056;2022-09-17T13:45:33;12.70;99.90
20534;DHT22;12929;56.822;26.056;2022-09-17T13:48:09;12.60;99.90
20534;DHT22;12929;56.822;26.056;2022-09-17T13:50:40;12.50;99.90
20534;DHT22;12929;56.822;26.056;2022-09-17T13:55:49;12.40;99.90
20534;DHT22;12929;56.822;26.056;2022-09-17T14:19:30;12.10;99.90
20534;DHT22;12929;56.822;26.056;2022-09-17T14:27:27;11.90;99.90
20534;DHT22;12929;56.822;26.056;2022-09-17T14:30:14;11.80;99.90
20534;DHT22;12929;56.822;26.056;2022-09-17T14:35:44;11.80;99.90
20534;DHT22;12929;56.822;26.056;2022-09-17T14:38:32;11.90;99.90
20534;DHT22;12929;56.822;26.056;2022-09-17T14:41:04;11.90;99.90
20534;DHT22;12929;56.822;26.056;2022-09-17T14:43:59;11.90;99.90
20534;DHT22;12929;56.822;26.056;2022-09-17T14:46:32;11.90;99.90
20534;DHT22;12929;56.822;26.056;2022-09-17T14:49:23;11.90;99.90
20534;DHT22;12929;56.822;26.056;2022-09-17T14:51:52;11.80;99.90
20534;DHT22;12929;56.822;26.056;2022-09-17T14:54:29;11.80;99.90
20534;DHT22;12929;56.822;26.056;2022-09-17T15:00:19;11.90;99.90
20534;DHT22;12929;56.822;26.056;2022-09-17T15:02:54;11.80;99.90
20534;DHT22;12929;56.822;26.056;2022-09-17T15:05:31;11.80;99.90
20534;DHT22;12929;56.822;26.056;2022-09-17T15:08:10;11.70;99.90
20534;DHT22;12929;56.822;26.056;2022-09-17T15:11:00;11.70;99.90
20534;DHT22;12929;56.822;26.056;2022-09-17T15:13:36;11.70;99.90
20534;DHT22;12929;56.822;26.056;2022-09-17T15:16:27;11.60;99.90
20534;DHT22;12929;56.822;26.056;2022-09-17T15:18:58;11.50;99.90
20534;DHT22;12929;56.822;26.056;2022-09-17T15:21:39;11.50;99.90
20534;DHT22;12929;56.822;26.056;2022-09-17T15:24:31;11.40;99.90
20534;DHT22;12929;56.822;26.056;2022-09-17T15:27:26;11.40;99.90
20534;DHT22;12929;56.822;26.056;2022-09-17T15:32:33;11.40;99.90
20534;DHT22;12929;56.822;26.056;2022-09-17T15:37:48;11.40;99.90
20534;DHT22;12929;56.822;26.056;2022-09-17T15:40:40;11.40;99.90
20534;DHT22;12929;56.822;26.056;2022-09-17T15:43:27;11.30;99.90
20534;DHT22;12929;56.822;26.056;2022-09-17T15:45:56;11.30;99.90
20534;DHT22;12929;56.822;26.056;2022-09-17T15:50:56;11.40;99.90
20534;DHT22;12929;56.822;26.056;2022-09-17T15:53:28;11.30;99.90
20534;DHT22;12929;56.822;26.056;2022-09-17T15:58:52;11.20;99.90
20534;DHT22;12929;56.822;26.056;2022-09-17T16:08:48;11.20;99.90
20534;DHT22;12929;56.822;26.056;2022-09-17T16:11:17;11.10;99.90
20534;DHT22;12929;56.822;26.056;2022-09-17T16:13:49;11.10;99.90
20534;DHT22;12929;56.822;26.056;2022-09-17T16:16:18;11.10;99.90
20534;DHT22;12929;56.822;26.056;2022-09-17T16:18:47;11.10;99.90
20534;DHT22;12929;56.822;26.056;2022-09-17T16:21:17;11.10;99.90
20534;DHT22;12929;56.822;26.056;2022-09-17T16:23:45;11.20;99.90
20534;DHT22;12929;56.822;26.056;2022-09-17T16:26:19;11.30;99.90
20534;DHT22;12929;56.822;26.056;2022-09-17T16:28:51;11.20;99.90
20534;DHT22;12929;56.822;26.056;2022-09-17T16:31:20;11.30;99.90
20534;DHT22;12929;56.822;26.056;2022-09-17T16:33:47;11.30;99.90
20534;DHT22;12929;56.822;26.056;2022-09-17T16:36:16;11.20;99.90
20534;DHT22;12929;56.822;26.056;2022-09-17T16:38:43;11.30;99.90
20534;DHT22;12929;56.822;26.056;2022-09-17T16:41:11;11.30;99.90
20534;DHT22;12929;56.822;26.056;2022-09-17T16:43:39;11.30;99.90
20534;DHT22;12929;56.822;26.056;2022-09-17T16:46:08;11.30;99.90
20534;DHT22;12929;56.822;26.056;2022-09-17T16:48:37;11.30;99.90
20534;DHT22;12929;56.822;26.056;2022-09-17T16:51:09;11.30;99.90
20534;DHT22;12929;56.822;26.056;2022-09-17T16:53:37;11.20;99.90
20534;DHT22;12929;56.822;26.056;2022-09-17T16:56:10;11.30;99.90
20534;DHT22;12929;56.822;26.056;2022-09-17T16:58:38;11.20;99.90
20534;DHT22;12929;56.822;26.056;2022-09-17T17:01:08;11.30;99.90
20534;DHT22;12929;56.822;26.056;2022-09-17T17:03:35;11.10;99.90
20534;DHT22;12929;56.822;26.056;2022-09-17T17:06:03;11.10;99.90
20534;DHT22;12929;56.822;26.056;2022-09-17T17:08:32;11.10;99.90
20534;DHT22;12929;56.822;26.056;2022-09-17T17:11:00;11.20;99.90
20534;DHT22;12929;56.822;26.056;2022-09-17T17:13:28;11.20;99.90
20534;DHT22;12929;56.822;26.056;2022-09-17T17:15:55;11.20;99.90
20534;DHT22;12929;56.822;26.056;2022-09-17T17:18:23;11.20;99.90
20534;DHT22;12929;56.822;26.056;2022-09-17T17:20:51;11.00;99.90
20534;DHT22;12929;56.822;26.056;2022-09-17T17:23:19;11.10;99.90
20534;DHT22;12929;56.822;26.056;2022-09-17T17:25:47;11.10;99.90
20534;DHT22;12929;56.822;26.056;2022-09-17T17:28:15;10.90;99.90
20534;DHT22;12929;56.822;26.056;2022-09-17T17:30:46;11.00;99.90
20534;DHT22;12929;56.822;26.056;2022-09-17T17:33:14;11.00;99.90
20534;DHT22;12929;56.822;26.056;2022-09-17T17:35:41;10.90;99.90
20534;DHT22;12929;56.822;26.056;2022-09-17T17:38:09;10.80;99.90
20534;DHT22;12929;56.822;26.056;2022-09-17T17:40:37;10.80;99.90
20534;DHT22;12929;56.822;26.056;2022-09-17T17:43:05;10.80;99.90
20534;DHT22;12929;56.822;26.056;2022-09-17T17:45:32;10.80;99.90
20534;DHT22;12929;56.822;26.056;2022-09-17T17:48:00;10.80;99.90
20534;DHT22;12929;56.822;26.056;2022-09-17T17:50:28;10.80;99.90
20534;DHT22;12929;56.822;26.056;2022-09-17T17:52:56;10.80;99.90
20534;DHT22;12929;56.822;26.056;2022-09-17T17:55:23;10.90;99.90
20534;DHT22;12929;56.822;26.056;2022-09-17T17:57:56;10.90;99.90
20534;DHT22;12929;56.822;26.056;2022-09-17T18:00:27;10.80;99.90
20534;DHT22;12929;56.822;26.056;2022-09-17T18:02:55;10.90;99.90
20534;DHT22;12929;56.822;26.056;2022-09-17T18:05:23;10.90;99.90
20534;DHT22;12929;56.822;26.056;2022-09-17T18:07:50;10.80;99.90
20534;DHT22;12929;56.822;26.056;2022-09-17T18:10:18;10.80;99.90
20534;DHT22;12929;56.822;26.056;2022-09-17T18:12:46;10.60;99.90
20534;DHT22;12929;56.822;26.056;2022-09-17T18:15:17;10.60;99.90
20534;DHT22;12929;56.822;26.056;2022-09-17T18:17:44;10.50;99.90
20534;DHT22;12929;56.822;26.056;2022-09-17T18:20:14;10.50;99.90
20534;DHT22;12929;56.822;26.056;2022-09-17T18:22:42;10.60;99.90
20534;DHT22;12929;56.822;26.056;2022-09-17T18:25:09;10.60;99.90
20534;DHT22;12929;56.822;26.056;2022-09-17T18:27:38;10.50;99.90
20534;DHT22;12929;56.822;26.056;2022-09-17T18:30:06;10.50;99.90
20534;DHT22;12929;56.822;26.056;2022-09-17T18:32:35;10.50;99.90
20534;DHT22;12929;56.822;26.056;2022-09-17T18:35:07;10.60;99.90
20534;DHT22;12929;56.822;26.056;2022-09-17T18:37:35;10.60;99.90
20534;DHT22;12929;56.822;26.056;2022-09-17T18:40:02;10.60;99.90
20534;DHT22;12929;56.822;26.056;2022-09-17T18:42:30;10.60;99.90
20534;DHT22;12929;56.822;26.056;2022-09-17T18:44:58;10.60;99.90
20534;DHT22;12929;56.822;26.056;2022-09-17T18:47:25;10.60;99.90
20534;DHT22;12929;56.822;26.056;2022-09-17T18:49:53;10.60;99.90
20534;DHT22;12929;56.822;26.056;2022-09-17T18:52:21;10.40;99.90
20534;DHT22;12929;56.822;26.056;2022-09-17T18:54:50;10.50;99.90
20534;DHT22;12929;56.822;26.056;2022-09-17T18:57:24;10.50;99.90
20534;DHT22;12929;56.822;26.056;2022-09-17T18:59:53;10.50;99.90
20534;DHT22;12929;56.822;26.056;2022-09-17T19:02:20;10.40;99.90
20534;DHT22;12929;56.822;26.056;2022-09-17T19:04:48;10.40;99.90
20534;DHT22;12929;56.822;26.056;2022-09-17T19:07:15;10.40;99.90
20534;DHT22;12929;56.822;26.056;2022-09-17T19:09:43;10.30;99.90
20534;DHT22;12929;56.822;26.056;2022-09-17T19:12:11;10.30;99.90
20534;DHT22;12929;56.822;26.056;2022-09-17T19:14:38;10.40;99.90
20534;DHT22;12929;56.822;26.056;2022-09-17T19:17:06;10.40;99.90
20534;DHT22;12929;56.822;26.056;2022-09-17T19:19:35;10.40;99.90
20534;DHT22;12929;56.822;26.056;2022-09-17T19:22:02;10.50;99.90
20534;DHT22;12929;56.822;26.056;2022-09-17T19:24:30;10.40;99.90
20534;DHT22;12929;56.822;26.056;2022-09-17T19:26:59;10.40;99.90
20534;DHT22;12929;56.822;26.056;2022-09-17T19:29:27;10.50;99.90
20534;DHT22;12929;56.822;26.056;2022-09-17T19:31:55;10.40;99.90
20534;DHT22;12929;56.822;26.056;2022-09-17T19:34:22;10.40;99.90